Time;durP1;ratioP1;P1;durP2;ratioP2;P2;SDS_P1;SDS_P2;PMS_P1;PMS_P2;Temp;Humidity;BMP_temperature;BMP_pressure;BME280_temperature;BME280_humidity;BME280_pressure;Samples;Min_cycle;Max_cycle;Signal;HPM_P1;HPM_P2
2023/12/13 00:00:05;;;;;;;14.10;9.17;;;;;;;;;;4972220;28;20250;-44
2023/12/13 00:02:31;;;;;;;13.73;9.23;;;;;;;;;;4972096;28;20574;-44
2023/12/13 00:04:57;;;;;;;15.93;10.33;;;;;;;;;;4972311;28;20205;-44
2023/12/13 00:07:23;;;;;;;15.97;9.73;;;;;;;;;;4971891;28;20210;-44
2023/12/13 00:09:49;;;;;;;15.97;10.13;;;;;;;;;;4972261;28;20194;-44
2023/12/13 00:12:15;;;;;;;17.67;10.83;;;;;;;;;;4971842;28;20218;-44
2023/12/13 00:14:42;;;;;;;14.60;10.37;;;;;;;;;;4972412;28;20195;-44
2023/12/13 00:17:10;;;;;;;14.47;10.40;;;;;;;;;;4972448;28;20666;-44
2023/12/13 00:19:36;;;;;;;15.60;10.10;;;;;;;;;;4971986;28;20708;-44
2023/12/13 00:22:03;;;;;;;15.47;10.17;;;;;;;;;;4972328;28;20210;-44
2023/12/13 00:24:29;;;;;;;16.83;10.87;;;;;;;;;;4972054;28;20199;-44
2023/12/13 00:26:55;;;;;;;16.40;10.27;;;;;;;;;;4972092;28;20258;-44
2023/12/13 00:29:21;;;;;;;19.57;11.17;;;;;;;;;;4972109;28;20195;-44
2023/12/13 00:31:48;;;;;;;17.93;11.27;;;;;;;;;;4972361;28;20745;-44
2023/12/13 00:34:14;;;;;;;15.73;10.90;;;;;;;;;;4971836;28;20211;-44
2023/12/13 00:36:40;;;;;;;13.07;11.17;;;;;;;;;;4972369;28;20206;-44
2023/12/13 00:39:06;;;;;;;19.50;10.77;;;;;;;;;;4971695;28;20206;-44
2023/12/13 00:41:32;;;;;;;16.10;11.03;;;;;;;;;;4971758;28;20242;-44
2023/12/13 00:43:58;;;;;;;18.70;10.57;;;;;;;;;;4971968;28;20203;-44
2023/12/13 00:46:24;;;;;;;14.20;10.00;;;;;;;;;;4971837;28;20205;-44
2023/12/13 00:48:52;;;;;;;16.53;10.57;;;;;;;;;;4971812;28;20206;-44
2023/12/13 00:51:18;;;;;;;17.17;11.00;;;;;;;;;;4973999;28;20499;-44
2023/12/13 00:53:45;;;;;;;15.90;10.53;;;;;;;;;;4975349;28;20266;-44
2023/12/13 00:56:11;;;;;;;16.93;11.13;;;;;;;;;;4975518;28;20217;-44
2023/12/13 00:58:37;;;;;;;18.93;12.03;;;;;;;;;;4975224;28;20195;-44
2023/12/13 01:01:03;;;;;;;15.70;11.33;;;;;;;;;;4984106;28;20214;-44
2023/12/13 01:03:29;;;;;;;17.23;11.03;;;;;;;;;;4994457;28;20206;-43
2023/12/13 01:05:56;;;;;;;22.17;11.97;;;;;;;;;;4994849;28;20194;-43
2023/12/13 01:08:22;;;;;;;14.40;11.03;;;;;;;;;;4994453;28;20221;-43
2023/12/13 01:10:48;;;;;;;20.13;11.63;;;;;;;;;;4994214;28;20273;-44
2023/12/13 01:13:14;;;;;;;20.53;12.03;;;;;;;;;;4994197;28;20628;-43
2023/12/13 01:15:40;;;;;;;20.73;13.13;;;;;;;;;;4994619;28;20212;-43
2023/12/13 01:18:06;;;;;;;22.87;13.47;;;;;;;;;;4994336;28;20198;-43
2023/12/13 01:20:32;;;;;;;21.13;13.20;;;;;;;;;;4994114;28;20227;-44
2023/12/13 01:23:00;;;;;;;15.53;12.23;;;;;;;;;;4984792;28;20273;-44
2023/12/13 01:25:26;;;;;;;22.47;12.57;;;;;;;;;;4973151;28;20664;-43
2023/12/13 01:27:57;;;;;;;18.53;12.27;;;;;;;;;;4974618;28;20729;-43
2023/12/13 01:30:23;;;;;;;19.27;12.80;;;;;;;;;;4974884;28;20206;-43
2023/12/13 01:32:49;;;;;;;18.30;11.90;;;;;;;;;;4974755;28;20254;-43
2023/12/13 01:35:15;;;;;;;19.70;12.70;;;;;;;;;;4974988;28;20199;-43
2023/12/13 01:37:41;;;;;;;24.00;13.03;;;;;;;;;;4974822;28;20238;-44
2023/12/13 01:40:09;;;;;;;19.17;13.57;;;;;;;;;;4974755;28;20254;-43
2023/12/13 01:42:37;;;;;;;16.60;11.97;;;;;;;;;;4974561;28;20301;-43
2023/12/13 01:45:03;;;;;;;13.63;11.63;;;;;;;;;;4974440;28;20831;-43
2023/12/13 01:47:29;;;;;;;13.67;11.77;;;;;;;;;;4974367;28;20653;-43
2023/12/13 01:49:55;;;;;;;17.30;11.57;;;;;;;;;;4974507;28;20214;-44
2023/12/13 01:52:21;;;;;;;17.50;11.67;;;;;;;;;;4974203;28;20206;-44
2023/12/13 01:54:48;;;;;;;14.33;11.80;;;;;;;;;;4974299;28;20673;-44
2023/12/13 01:57:15;;;;;;;16.10;11.47;;;;;;;;;;4974189;28;20219;-44
2023/12/13 01:59:41;;;;;;;16.77;11.43;;;;;;;;;;4974286;28;20223;-44
2023/12/13 02:02:08;;;;;;;16.17;11.00;;;;;;;;;;4972988;28;20285;-44
2023/12/13 02:04:37;;;;;;;14.20;11.10;;;;;;;;;;4974192;28;20207;-44
2023/12/13 02:07:03;;;;;;;12.77;10.60;;;;;;;;;;4974082;28;20234;-44
2023/12/13 02:09:29;;;;;;;12.87;10.87;;;;;;;;;;4973883;28;20572;-44
2023/12/13 02:11:56;;;;;;;13.93;10.80;;;;;;;;;;4974158;28;20222;-44
2023/12/13 02:14:25;;;;;;;14.13;10.40;;;;;;;;;;4973869;28;20278;-44
2023/12/13 02:16:53;;;;;;;14.90;10.13;;;;;;;;;;4973924;28;20257;-44
2023/12/13 02:19:19;;;;;;;12.37;9.63;;;;;;;;;;4973657;28;20209;-44
2023/12/13 02:21:45;;;;;;;14.13;10.67;;;;;;;;;;4973513;28;20658;-44
2023/12/13 02:24:12;;;;;;;15.47;10.90;;;;;;;;;;4973795;28;20209;-44
2023/12/13 02:26:40;;;;;;;15.40;10.93;;;;;;;;;;4973790;28;20199;-44
2023/12/13 02:29:06;;;;;;;11.73;9.37;;;;;;;;;;4973603;28;20214;-44
2023/12/13 02:31:32;;;;;;;14.67;10.33;;;;;;;;;;4973537;28;20195;-44
2023/12/13 02:33:58;;;;;;;14.07;9.83;;;;;;;;;;4973673;28;20207;-44
2023/12/13 02:36:24;;;;;;;22.70;10.87;;;;;;;;;;4973571;28;20214;-44
2023/12/13 02:38:50;;;;;;;16.33;11.43;;;;;;;;;;4973497;28;20205;-44
2023/12/13 02:41:18;;;;;;;18.40;12.30;;;;;;;;;;4973249;28;20238;-44
2023/12/13 02:43:44;;;;;;;18.63;12.63;;;;;;;;;;4973457;28;20207;-44
2023/12/13 02:46:10;;;;;;;20.40;13.00;;;;;;;;;;4973988;28;20651;-44
2023/12/13 02:48:36;;;;;;;22.40;12.70;;;;;;;;;;4973247;28;20294;-44
2023/12/13 02:51:03;;;;;;;21.37;14.17;;;;;;;;;;4971540;28;20202;-44
2023/12/13 02:53:29;;;;;;;20.53;13.33;;;;;;;;;;4971537;28;20202;-44
2023/12/13 02:55:55;;;;;;;17.43;12.87;;;;;;;;;;4971632;28;20199;-44
2023/12/13 02:58:23;;;;;;;19.30;13.83;;;;;;;;;;4971329;28;20198;-44
2023/12/13 03:00:50;;;;;;;16.87;13.33;;;;;;;;;;4971425;28;20234;-44
2023/12/13 03:03:16;;;;;;;19.80;14.63;;;;;;;;;;4971168;28;20691;-44
2023/12/13 03:05:42;;;;;;;25.67;16.23;;;;;;;;;;4971623;28;20199;-44
2023/12/13 03:08:08;;;;;;;24.13;15.43;;;;;;;;;;4971394;28;20203;-44
2023/12/13 03:10:34;;;;;;;21.73;15.70;;;;;;;;;;4973108;28;20583;-44
2023/12/13 03:13:00;;;;;;;25.00;15.90;;;;;;;;;;4964204;28;20249;-44
2023/12/13 03:15:28;;;;;;;22.23;15.90;;;;;;;;;;4967910;28;20202;-44
2023/12/13 03:17:54;;;;;;;22.40;15.43;;;;;;;;;;4964651;28;20577;-44
2023/12/13 03:20:20;;;;;;;23.17;15.93;;;;;;;;;;4964302;28;20712;-44
2023/12/13 03:22:46;;;;;;;22.57;15.73;;;;;;;;;;4964289;28;20226;-44
2023/12/13 03:25:12;;;;;;;22.93;15.40;;;;;;;;;;4967747;28;20199;-44
2023/12/13 03:27:42;;;;;;;23.00;15.33;;;;;;;;;;4962591;28;20772;-44
2023/12/13 03:30:09;;;;;;;22.87;15.83;;;;;;;;;;4966402;28;20203;-44
2023/12/13 03:32:36;;;;;;;19.83;15.37;;;;;;;;;;4965944;28;20275;-44
2023/12/13 03:35:02;;;;;;;22.97;16.47;;;;;;;;;;4965961;28;20210;-44
2023/12/13 03:37:31;;;;;;;19.97;15.10;;;;;;;;;;4965780;28;20662;-44
2023/12/13 03:39:57;;;;;;;22.30;15.10;;;;;;;;;;4965803;28;20238;-44
2023/12/13 03:42:23;;;;;;;19.37;14.10;;;;;;;;;;4962502;28;20262;-44
2023/12/13 03:44:49;;;;;;;23.23;15.27;;;;;;;;;;4965810;28;20298;-44
2023/12/13 03:47:15;;;;;;;24.87;15.90;;;;;;;;;;4964028;28;20269;-44
2023/12/13 03:49:42;;;;;;;21.87;15.23;;;;;;;;;;4964443;28;20218;-44
2023/12/13 03:52:10;;;;;;;21.47;14.13;;;;;;;;;;4967552;28;20207;-44
2023/12/13 03:54:36;;;;;;;22.67;14.43;;;;;;;;;;4962379;28;20194;-44
2023/12/13 03:57:03;;;;;;;19.70;15.07;;;;;;;;;;4965621;28;20206;-44
2023/12/13 03:59:29;;;;;;;17.87;13.43;;;;;;;;;;4967169;28;20297;-44
2023/12/13 04:01:55;;;;;;;18.17;13.43;;;;;;;;;;4961966;28;20294;-44
2023/12/13 04:04:21;;;;;;;17.30;13.17;;;;;;;;;;4960590;28;20203;-44
2023/12/13 04:06:48;;;;;;;16.90;13.03;;;;;;;;;;4962347;28;20417;-44
2023/12/13 04:09:14;;;;;;;19.13;13.33;;;;;;;;;;4965682;28;20343;-44
2023/12/13 04:11:40;;;;;;;20.90;13.77;;;;;;;;;;4963964;28;20800;-44
2023/12/13 04:14:06;;;;;;;17.80;12.93;;;;;;;;;;4962289;28;20252;-44
2023/12/13 04:16:32;;;;;;;21.90;13.43;;;;;;;;;;4967176;28;20701;-44
2023/12/13 04:18:58;;;;;;;18.63;13.03;;;;;;;;;;4960567;28;20228;-44
2023/12/13 04:21:24;;;;;;;21.73;14.27;;;;;;;;;;4962157;28;20277;-44
2023/12/13 04:23:51;;;;;;;22.40;14.00;;;;;;;;;;4962177;28;20309;-44
2023/12/13 04:26:18;;;;;;;19.57;13.57;;;;;;;;;;4964318;28;20659;-44
2023/12/13 04:28:44;;;;;;;18.97;13.03;;;;;;;;;;4962069;28;20748;-44
2023/12/13 04:31:10;;;;;;;21.03;13.53;;;;;;;;;;4965919;28;20562;-44
2023/12/13 04:33:36;;;;;;;17.70;11.53;;;;;;;;;;4965686;28;20207;-44
2023/12/13 04:36:04;;;;;;;20.17;13.10;;;;;;;;;;4965585;28;20704;-44
2023/12/13 04:38:30;;;;;;;19.87;12.23;;;;;;;;;;4962164;28;20203;-44
2023/12/13 04:40:57;;;;;;;18.63;12.70;;;;;;;;;;4975787;28;20633;-44
2023/12/13 04:43:23;;;;;;;22.77;12.67;;;;;;;;;;4975698;28;20210;-44
2023/12/13 04:45:49;;;;;;;17.60;12.93;;;;;;;;;;4976006;28;20199;-44
2023/12/13 04:48:15;;;;;;;17.87;11.90;;;;;;;;;;4973760;28;20557;-44
2023/12/13 04:50:41;;;;;;;16.43;12.07;;;;;;;;;;4964801;28;20290;-44
2023/12/13 04:53:07;;;;;;;16.30;12.57;;;;;;;;;;4964625;28;20203;-44
2023/12/13 04:55:33;;;;;;;17.37;12.53;;;;;;;;;;4966804;28;20199;-44
2023/12/13 04:58:00;;;;;;;18.20;11.70;;;;;;;;;;4963682;28;20210;-44
2023/12/13 05:00:26;;;;;;;18.40;12.23;;;;;;;;;;4961862;28;20226;-44
2023/12/13 05:02:52;;;;;;;17.27;12.73;;;;;;;;;;4968612;28;20209;-44
2023/12/13 05:05:18;;;;;;;15.70;12.40;;;;;;;;;;4961745;28;20246;-44
2023/12/13 05:07:44;;;;;;;14.83;10.70;;;;;;;;;;4963331;28;20238;-44
2023/12/13 05:10:10;;;;;;;15.90;11.53;;;;;;;;;;4965125;28;20371;-44
2023/12/13 05:12:36;;;;;;;17.90;11.20;;;;;;;;;;4961560;28;20223;-44
2023/12/13 05:15:04;;;;;;;12.53;10.00;;;;;;;;;;4963799;28;20207;-44
2023/12/13 05:17:30;;;;;;;15.40;10.90;;;;;;;;;;4964790;28;20214;-44
2023/12/13 05:19:58;;;;;;;16.10;10.77;;;;;;;;;;4961687;28;20242;-44
2023/12/13 05:22:24;;;;;;;17.60;11.30;;;;;;;;;;4961347;28;20713;-44
2023/12/13 05:24:50;;;;;;;14.77;10.93;;;;;;;;;;4961504;28;20241;-44
2023/12/13 05:27:16;;;;;;;14.93;10.50;;;;;;;;;;4964606;28;20639;-44
2023/12/13 05:29:42;;;;;;;13.57;9.73;;;;;;;;;;4963131;28;20211;-44
2023/12/13 05:32:09;;;;;;;15.27;9.37;;;;;;;;;;4963202;28;20202;-44
2023/12/13 05:34:35;;;;;;;12.20;9.30;;;;;;;;;;4962868;28;20213;-44
2023/12/13 05:37:05;;;;;;;11.07;9.27;;;;;;;;;;4962709;28;20202;-44
2023/12/13 05:39:31;;;;;;;10.73;8.97;;;;;;;;;;4961072;28;20207;-44
2023/12/13 05:41:57;;;;;;;14.07;9.17;;;;;;;;;;4962977;28;20218;-44
2023/12/13 05:44:23;;;;;;;13.33;9.60;;;;;;;;;;4961103;28;20288;-44
2023/12/13 05:46:49;;;;;;;13.00;8.67;;;;;;;;;;4962881;28;20203;-44
2023/12/13 05:49:16;;;;;;;11.60;8.70;;;;;;;;;;4962676;28;20614;-44
2023/12/13 05:51:42;;;;;;;13.33;9.80;;;;;;;;;;4962643;28;20210;-44
2023/12/13 05:54:08;;;;;;;11.63;9.20;;;;;;;;;;4962643;28;20230;-44
2023/12/13 05:56:34;;;;;;;13.27;9.40;;;;;;;;;;4962530;28;20209;-44
2023/12/13 05:59:00;;;;;;;12.47;8.90;;;;;;;;;;4960869;28;20194;-44
2023/12/13 06:01:26;;;;;;;13.20;9.30;;;;;;;;;;4960713;28;20314;-44
2023/12/13 06:03:52;;;;;;;13.00;9.57;;;;;;;;;;4962732;28;20657;-44
2023/12/13 06:06:19;;;;;;;11.63;9.50;;;;;;;;;;4962353;28;20712;-44
2023/12/13 06:08:45;;;;;;;15.10;9.93;;;;;;;;;;4960578;28;20206;-44
2023/12/13 06:11:11;;;;;;;15.07;9.93;;;;;;;;;;4960763;28;20210;-44
2023/12/13 06:13:37;;;;;;;14.00;9.30;;;;;;;;;;4962258;28;20206;-44
2023/12/13 06:16:04;;;;;;;15.33;10.87;;;;;;;;;;4963718;28;20199;-44
2023/12/13 06:18:31;;;;;;;14.57;9.93;;;;;;;;;;4961719;28;20207;-44
2023/12/13 06:20:57;;;;;;;15.67;10.37;;;;;;;;;;4960236;28;20223;-44
2023/12/13 06:23:24;;;;;;;14.10;9.97;;;;;;;;;;4960142;28;20218;-44
2023/12/13 06:25:50;;;;;;;17.83;10.77;;;;;;;;;;4961913;28;20571;-44
2023/12/13 06:28:16;;;;;;;14.63;10.30;;;;;;;;;;4961720;28;20660;-44
2023/12/13 06:30:42;;;;;;;13.73;10.13;;;;;;;;;;4961709;28;20234;-44
2023/12/13 06:33:08;;;;;;;19.20;11.30;;;;;;;;;;4959956;28;20793;-44
2023/12/13 06:35:36;;;;;;;12.67;9.50;;;;;;;;;;4961477;28;20613;-44
2023/12/13 06:38:02;;;;;;;13.67;9.83;;;;;;;;;;4959920;28;20444;-44
2023/12/13 06:40:29;;;;;;;19.60;12.27;;;;;;;;;;4961108;28;20293;-44
2023/12/13 06:42:55;;;;;;;17.53;11.27;;;;;;;;;;4959885;28;20553;-44
2023/12/13 06:45:21;;;;;;;17.67;10.97;;;;;;;;;;4961607;28;20214;-44
2023/12/13 06:47:48;;;;;;;19.17;12.20;;;;;;;;;;4959097;28;20210;-44
2023/12/13 06:50:14;;;;;;;15.43;11.23;;;;;;;;;;4961481;28;20195;-44
2023/12/13 06:52:40;;;;;;;18.30;12.63;;;;;;;;;;4959803;28;20571;-44
2023/12/13 06:55:07;;;;;;;15.93;12.40;;;;;;;;;;4961444;28;20206;-44
2023/12/13 06:57:34;;;;;;;17.00;12.10;;;;;;;;;;4959592;28;20241;-44
2023/12/13 07:00:00;;;;;;;21.17;13.33;;;;;;;;;;4959517;28;20227;-44
2023/12/13 07:02:26;;;;;;;20.10;13.77;;;;;;;;;;4961332;28;20696;-44
2023/12/13 07:04:52;;;;;;;20.33;13.57;;;;;;;;;;4961426;28;20199;-44
2023/12/13 07:07:18;;;;;;;17.97;13.23;;;;;;;;;;4961172;28;20566;-44
2023/12/13 07:09:44;;;;;;;22.20;13.57;;;;;;;;;;4961182;28;20207;-44
2023/12/13 07:12:10;;;;;;;20.60;13.80;;;;;;;;;;4961422;28;20203;-44
2023/12/13 07:14:37;;;;;;;20.40;14.17;;;;;;;;;;4959516;28;20278;-44
2023/12/13 07:17:03;;;;;;;22.60;14.10;;;;;;;;;;4963092;28;20215;-44
2023/12/13 07:19:29;;;;;;;25.23;15.47;;;;;;;;;;4959224;28;20282;-44
2023/12/13 07:21:55;;;;;;;22.13;13.87;;;;;;;;;;4959361;28;20231;-44
2023/12/13 07:24:21;;;;;;;24.23;14.70;;;;;;;;;;4959141;28;20253;-44
2023/12/13 07:26:47;;;;;;;20.13;14.40;;;;;;;;;;4960763;28;20822;-44
2023/12/13 07:29:13;;;;;;;24.90;16.80;;;;;;;;;;4961020;28;20206;-44
2023/12/13 07:31:41;;;;;;;22.87;16.40;;;;;;;;;;4961101;28;20194;-44
2023/12/13 07:34:08;;;;;;;22.97;16.80;;;;;;;;;;4960822;28;20666;-44
2023/12/13 07:36:34;;;;;;;32.10;21.97;;;;;;;;;;4960637;28;20798;-44
2023/12/13 07:39:00;;;;;;;27.03;17.93;;;;;;;;;;4960656;28;20203;-44
2023/12/13 07:41:26;;;;;;;23.07;16.30;;;;;;;;;;4961090;28;20230;-44
2023/12/13 07:43:52;;;;;;;20.47;16.17;;;;;;;;;;4958323;28;20202;-44
2023/12/13 07:46:18;;;;;;;27.97;17.67;;;;;;;;;;4958113;28;20203;-44
2023/12/13 07:48:46;;;;;;;26.57;17.70;;;;;;;;;;4960658;28;20257;-44
2023/12/13 07:51:12;;;;;;;21.87;16.23;;;;;;;;;;4959103;28;20195;-44
2023/12/13 07:53:41;;;;;;;26.93;17.17;;;;;;;;;;4958876;28;20207;-44
2023/12/13 07:56:08;;;;;;;21.40;16.13;;;;;;;;;;4960772;28;20578;-46
2023/12/13 07:58:34;;;;;;;22.90;16.70;;;;;;;;;;4962368;28;20615;-44
2023/12/13 08:01:00;;;;;;;22.57;15.93;;;;;;;;;;4964126;28;20313;-45
2023/12/13 08:03:26;;;;;;;26.90;17.30;;;;;;;;;;4962491;28;20245;-45
2023/12/13 08:05:54;;;;;;;24.53;17.13;;;;;;;;;;4964792;28;20666;-44
2023/12/13 08:08:20;;;;;;;24.90;17.50;;;;;;;;;;4964483;28;20325;-44
2023/12/13 08:10:46;;;;;;;28.43;18.47;;;;;;;;;;4962455;28;20191;-44
2023/12/13 08:13:12;;;;;;;25.50;17.67;;;;;;;;;;4964814;28;20202;-45
2023/12/13 08:15:38;;;;;;;30.00;18.90;;;;;;;;;;4963287;28;20278;-44
2023/12/13 08:18:04;;;;;;;27.13;18.47;;;;;;;;;;4965966;28;20305;-44
2023/12/13 08:20:30;;;;;;;32.33;18.37;;;;;;;;;;4962335;28;20222;-44
2023/12/13 08:22:57;;;;;;;28.23;18.87;;;;;;;;;;4967873;28;20309;-45
2023/12/13 08:25:23;;;;;;;25.90;18.27;;;;;;;;;;4964348;28;20214;-44
2023/12/13 08:27:49;;;;;;;29.27;19.40;;;;;;;;;;4964129;28;20655;-44
2023/12/13 08:30:15;;;;;;;30.97;19.53;;;;;;;;;;4964427;28;20207;-44
2023/12/13 08:32:41;;;;;;;26.80;19.20;;;;;;;;;;4962550;28;20261;-44
2023/12/13 08:35:08;;;;;;;32.67;20.80;;;;;;;;;;4963961;28;20203;-44
2023/12/13 08:37:34;;;;;;;32.40;20.13;;;;;;;;;;4962465;28;20878;-44
2023/12/13 08:40:01;;;;;;;26.73;19.17;;;;;;;;;;4962312;28;20223;-44
2023/12/13 08:42:27;;;;;;;28.93;19.07;;;;;;;;;;4963949;28;20261;-44
2023/12/13 08:44:53;;;;;;;31.13;19.90;;;;;;;;;;4965698;28;20230;-44
2023/12/13 08:47:21;;;;;;;29.73;20.23;;;;;;;;;;4962015;28;20210;-44
2023/12/13 08:49:48;;;;;;;27.20;19.03;;;;;;;;;;4965029;28;20287;-44
2023/12/13 08:52:17;;;;;;;31.97;19.17;;;;;;;;;;4963807;28;20203;-44
2023/12/13 08:54:43;;;;;;;25.93;18.33;;;;;;;;;;4965492;28;20273;-45
2023/12/13 08:57:10;;;;;;;30.33;19.80;;;;;;;;;;4963714;28;20574;-45
2023/12/13 08:59:36;;;;;;;32.67;20.07;;;;;;;;;;4963663;28;20217;-45
2023/12/13 09:02:02;;;;;;;27.90;19.67;;;;;;;;;;4965220;28;20223;-45
2023/12/13 09:04:28;;;;;;;25.57;18.37;;;;;;;;;;4963433;28;20677;-45
2023/12/13 09:06:54;;;;;;;22.77;17.97;;;;;;;;;;4963853;28;20230;-45
2023/12/13 09:09:20;;;;;;;30.87;21.00;;;;;;;;;;4965092;28;20199;-45
2023/12/13 09:11:47;;;;;;;33.30;20.87;;;;;;;;;;4968073;28;20211;-45
2023/12/13 09:14:15;;;;;;;33.03;20.90;;;;;;;;;;4963644;28;20203;-45
2023/12/13 09:16:41;;;;;;;31.23;20.40;;;;;;;;;;4963548;28;20210;-45
2023/12/13 09:19:08;;;;;;;34.20;20.17;;;;;;;;;;4965309;28;20198;-45
2023/12/13 09:21:34;;;;;;;27.57;19.10;;;;;;;;;;4962987;28;20250;-45
2023/12/13 09:24:00;;;;;;;27.93;20.43;;;;;;;;;;4962591;28;20213;-45
2023/12/13 09:26:26;;;;;;;29.40;20.47;;;;;;;;;;4963241;28;20210;-45
2023/12/13 09:28:55;;;;;;;30.43;20.93;;;;;;;;;;4964977;28;20239;-45
2023/12/13 09:31:24;;;;;;;26.60;19.67;;;;;;;;;;4963046;28;20594;-45
2023/12/13 09:33:50;;;;;;;32.17;21.50;;;;;;;;;;4963188;28;20283;-45
2023/12/13 09:36:17;;;;;;;25.13;19.80;;;;;;;;;;4964849;28;20205;-45
2023/12/13 09:38:43;;;;;;;33.37;20.33;;;;;;;;;;4962476;28;20206;-45
2023/12/13 09:41:09;;;;;;;27.47;19.10;;;;;;;;;;4962715;28;20223;-45
2023/12/13 09:43:37;;;;;;;26.60;19.33;;;;;;;;;;4964391;28;20203;-45
2023/12/13 09:46:05;;;;;;;29.90;20.07;;;;;;;;;;4962797;28;20198;-45
2023/12/13 09:48:34;;;;;;;27.07;20.53;;;;;;;;;;4962320;28;20684;-45
2023/12/13 09:51:01;;;;;;;26.10;19.67;;;;;;;;;;4962624;28;20202;-45
2023/12/13 09:53:28;;;;;;;24.60;18.10;;;;;;;;;;4963923;28;20293;-45
2023/12/13 09:55:55;;;;;;;23.87;18.37;;;;;;;;;;4965918;28;20261;-45
2023/12/13 09:58:21;;;;;;;30.43;19.17;;;;;;;;;;4966913;28;20199;-44
2023/12/13 10:00:47;;;;;;;22.33;16.53;;;;;;;;;;4967191;28;20709;-44
2023/12/13 10:03:13;;;;;;;20.57;16.60;;;;;;;;;;4963988;28;20677;-44
2023/12/13 10:05:43;;;;;;;23.53;16.93;;;;;;;;;;4961132;28;20199;-46
2023/12/13 10:08:12;;;;;;;21.03;15.97;;;;;;;;;;4962438;28;20583;-45
2023/12/13 10:10:39;;;;;;;23.63;16.93;;;;;;;;;;4962491;28;20195;-46
2023/12/13 10:13:09;;;;;;;21.40;17.20;;;;;;;;;;4962210;28;20700;-46
2023/12/13 10:15:36;;;;;;;19.07;15.53;;;;;;;;;;4963947;28;20250;-46
2023/12/13 10:18:02;;;;;;;20.50;15.57;;;;;;;;;;4964042;28;20195;-46
2023/12/13 10:20:29;;;;;;;24.87;15.63;;;;;;;;;;4962175;28;20591;-46
2023/12/13 10:22:57;;;;;;;19.70;16.47;;;;;;;;;;4963227;28;20278;-43
2023/12/13 10:25:23;;;;;;;19.47;16.17;;;;;;;;;;4962532;28;20203;-43
2023/12/13 10:27:51;;;;;;;19.93;15.57;;;;;;;;;;4962024;28;20583;-43
2023/12/13 10:30:18;;;;;;;21.13;15.60;;;;;;;;;;4960356;28;20294;-43
2023/12/13 10:32:44;;;;;;;19.07;15.03;;;;;;;;;;4961993;28;20234;-43
2023/12/13 10:35:10;;;;;;;19.27;15.30;;;;;;;;;;4963743;28;20205;-43
2023/12/13 10:37:36;;;;;;;16.73;14.10;;;;;;;;;;4961706;28;20619;-46
2023/12/13 10:40:05;;;;;;;14.67;13.17;;;;;;;;;;4963524;28;20254;-46
2023/12/13 10:42:32;;;;;;;19.10;15.07;;;;;;;;;;4962639;28;20225;-46
2023/12/13 10:45:00;;;;;;;16.00;13.87;;;;;;;;;;4962069;28;20202;-43
2023/12/13 10:47:26;;;;;;;17.33;15.03;;;;;;;;;;4963523;28;20250;-43
2023/12/13 10:49:53;;;;;;;19.03;14.43;;;;;;;;;;4965358;28;20198;-43
2023/12/13 10:52:20;;;;;;;17.10;14.47;;;;;;;;;;4964500;28;20203;-46
2023/12/13 10:54:47;;;;;;;17.87;13.57;;;;;;;;;;4963307;28;20217;-45
2023/12/13 10:57:15;;;;;;;16.13;13.77;;;;;;;;;;4965062;28;20187;-45
2023/12/13 10:59:41;;;;;;;16.87;12.87;;;;;;;;;;4961584;28;20199;-45
2023/12/13 11:02:08;;;;;;;15.77;13.87;;;;;;;;;;4961585;28;20329;-46
2023/12/13 11:04:35;;;;;;;15.27;13.67;;;;;;;;;;4962813;28;20530;-45
2023/12/13 11:07:03;;;;;;;15.07;12.50;;;;;;;;;;4961278;28;20198;-45
2023/12/13 11:09:29;;;;;;;12.50;11.20;;;;;;;;;;4963101;28;20199;-46
2023/12/13 11:11:59;;;;;;;15.17;11.60;;;;;;;;;;4961556;28;20242;-46
2023/12/13 11:14:26;;;;;;;17.00;13.63;;;;;;;;;;4963209;28;20201;-45
2023/12/13 11:16:53;;;;;;;14.07;11.97;;;;;;;;;;4963431;28;20211;-46
2023/12/13 11:19:22;;;;;;;15.00;13.00;;;;;;;;;;4961173;28;20203;-45
2023/12/13 11:21:48;;;;;;;13.57;12.17;;;;;;;;;;4962577;28;20249;-46
2023/12/13 11:24:16;;;;;;;13.37;11.17;;;;;;;;;;4964608;28;20198;-45
2023/12/13 11:26:42;;;;;;;13.20;10.90;;;;;;;;;;4962607;28;20646;-46
2023/12/13 11:29:15;;;;;;;13.97;11.53;;;;;;;;;;4966227;28;20669;-46
2023/12/13 11:31:49;;;;;;;12.50;10.63;;;;;;;;;;4961175;28;20201;-46
2023/12/13 11:34:15;;;;;;;13.57;11.13;;;;;;;;;;4962239;28;20208;-46
2023/12/13 11:36:42;;;;;;;13.47;10.50;;;;;;;;;;4964535;28;20659;-46
2023/12/13 11:39:08;;;;;;;12.40;11.10;;;;;;;;;;4964171;28;20207;-46
2023/12/13 11:41:35;;;;;;;12.87;11.43;;;;;;;;;;4962279;28;20227;-46
2023/12/13 11:44:01;;;;;;;14.07;12.00;;;;;;;;;;4960891;28;20614;-46
2023/12/13 11:46:29;;;;;;;12.33;10.67;;;;;;;;;;4962592;28;20658;-46
2023/12/13 11:48:56;;;;;;;14.33;10.30;;;;;;;;;;4964333;28;20253;-45
2023/12/13 11:51:22;;;;;;;11.90;10.70;;;;;;;;;;4966020;28;20278;-45
2023/12/13 11:53:48;;;;;;;10.87;9.77;;;;;;;;;;4960632;28;20652;-46
2023/12/13 11:56:18;;;;;;;13.30;10.17;;;;;;;;;;4965962;28;20206;-46
2023/12/13 11:58:44;;;;;;;10.33;9.33;;;;;;;;;;4963962;28;20249;-46
2023/12/13 12:01:13;;;;;;;10.50;9.40;;;;;;;;;;4965882;28;20227;-46
2023/12/13 12:03:39;;;;;;;12.30;10.30;;;;;;;;;;4967479;28;20282;-46
2023/12/13 12:06:14;;;;;;;12.90;10.93;;;;;;;;;;4962521;28;20207;-46
2023/12/13 12:08:40;;;;;;;13.00;10.80;;;;;;;;;;4960244;28;20209;-46
2023/12/13 12:11:07;;;;;;;10.87;9.67;;;;;;;;;;4963607;28;20692;-46
2023/12/13 12:13:33;;;;;;;11.47;10.00;;;;;;;;;;4963921;28;20198;-45
2023/12/13 12:16:00;;;;;;;10.90;9.27;;;;;;;;;;4965576;28;20199;-46
2023/12/13 12:18:26;;;;;;;12.47;10.23;;;;;;;;;;4965641;28;20249;-45
2023/12/13 12:20:52;;;;;;;14.77;11.10;;;;;;;;;;4967079;28;20746;-46
2023/12/13 12:23:20;;;;;;;11.50;10.30;;;;;;;;;;4962213;28;20656;-44
2023/12/13 12:25:46;;;;;;;12.27;11.00;;;;;;;;;;4962130;28;20211;-44
2023/12/13 12:28:12;;;;;;;11.47;10.27;;;;;;;;;;4962224;28;20301;-45
2023/12/13 12:30:39;;;;;;;12.73;10.87;;;;;;;;;;4961254;28;20187;-44
2023/12/13 12:33:06;;;;;;;11.97;10.53;;;;;;;;;;4967137;28;20277;-44
2023/12/13 12:35:32;;;;;;;12.57;10.73;;;;;;;;;;4961614;28;20201;-45
2023/12/13 12:37:58;;;;;;;14.33;12.00;;;;;;;;;;4964022;28;20199;-44
2023/12/13 12:40:25;;;;;;;14.47;13.07;;;;;;;;;;4966494;28;20289;-46
2023/12/13 12:42:51;;;;;;;14.93;13.33;;;;;;;;;;4972052;28;20211;-46
2023/12/13 12:45:18;;;;;;;15.23;13.10;;;;;;;;;;4970340;28;20207;-45
2023/12/13 12:47:45;;;;;;;18.03;12.80;;;;;;;;;;4973376;28;20792;-45
2023/12/13 12:50:11;;;;;;;15.13;12.40;;;;;;;;;;4975834;28;20207;-45
2023/12/13 12:52:38;;;;;;;15.80;13.40;;;;;;;;;;4973989;28;20213;-44
2023/12/13 12:55:04;;;;;;;15.37;11.77;;;;;;;;;;4975383;28;20505;-44
2023/12/13 12:57:31;;;;;;;14.40;11.93;;;;;;;;;;4973613;28;20294;-45
2023/12/13 12:59:57;;;;;;;13.17;11.20;;;;;;;;;;4975258;28;20688;-45
2023/12/13 13:02:23;;;;;;;13.47;11.80;;;;;;;;;;4975537;28;20231;-44
2023/12/13 13:04:49;;;;;;;12.63;11.13;;;;;;;;;;4975238;28;20994;-45
2023/12/13 13:07:15;;;;;;;15.00;12.17;;;;;;;;;;4973532;28;20287;-45
2023/12/13 13:09:41;;;;;;;13.27;10.43;;;;;;;;;;4975159;28;20237;-45
2023/12/13 13:12:08;;;;;;;12.63;11.13;;;;;;;;;;4975118;28;20223;-45
2023/12/13 13:14:35;;;;;;;12.87;11.47;;;;;;;;;;4971601;28;20203;-45
2023/12/13 13:17:02;;;;;;;12.70;10.07;;;;;;;;;;4971547;28;20203;-45
2023/12/13 13:19:28;;;;;;;12.30;10.10;;;;;;;;;;4975013;28;20624;-45
2023/12/13 13:21:55;;;;;;;10.10;8.83;;;;;;;;;;4974550;28;20253;-45
2023/12/13 13:24:22;;;;;;;11.10;8.47;;;;;;;;;;4974677;28;20202;-45
2023/12/13 13:26:48;;;;;;;8.73;7.20;;;;;;;;;;4972616;28;20207;-46
2023/12/13 13:29:14;;;;;;;9.43;7.73;;;;;;;;;;4970937;28;20224;-45
2023/12/13 13:31:42;;;;;;;9.30;7.17;;;;;;;;;;4969371;28;20674;-45
2023/12/13 13:34:08;;;;;;;8.37;7.40;;;;;;;;;;4974183;28;20207;-45
2023/12/13 13:36:34;;;;;;;9.53;6.80;;;;;;;;;;4969042;28;20692;-45
2023/12/13 13:39:00;;;;;;;10.07;7.00;;;;;;;;;;4970932;28;20199;-45
2023/12/13 13:41:28;;;;;;;8.50;6.73;;;;;;;;;;4971214;28;20589;-45
2023/12/13 13:43:54;;;;;;;8.90;6.00;;;;;;;;;;4971309;28;20638;-45
2023/12/13 13:46:20;;;;;;;9.43;6.23;;;;;;;;;;4967701;28;20199;-45
2023/12/13 13:48:47;;;;;;;7.67;6.33;;;;;;;;;;4967457;28;20700;-45
2023/12/13 13:51:13;;;;;;;8.70;6.07;;;;;;;;;;4965783;28;20253;-45
2023/12/13 13:53:39;;;;;;;6.70;5.73;;;;;;;;;;4969510;28;20203;-45
2023/12/13 13:56:06;;;;;;;9.60;5.57;;;;;;;;;;4972758;28;20207;-45
2023/12/13 13:58:32;;;;;;;12.20;5.60;;;;;;;;;;4970920;28;20476;-45
2023/12/13 14:00:58;;;;;;;9.33;5.53;;;;;;;;;;4967417;28;20305;-45
2023/12/13 14:03:24;;;;;;;9.27;5.33;;;;;;;;;;4969097;28;20210;-45
2023/12/13 14:05:54;;;;;;;6.67;5.00;;;;;;;;;;4961434;28;20203;-45
2023/12/13 14:08:20;;;;;;;8.37;5.23;;;;;;;;;;4972649;28;20203;-45
2023/12/13 14:10:48;;;;;;;6.87;5.20;;;;;;;;;;4973932;28;20237;-46
2023/12/13 14:13:14;;;;;;;8.90;5.33;;;;;;;;;;4973903;28;20210;-46